Time;durP1;ratioP1;P1;durP2;ratioP2;P2;SDS_P1;SDS_P2;PMS_P1;PMS_P2;Temp;Humidity;BMP_temperature;BMP_pressure;BME280_temperature;BME280_humidity;BME280_pressure;Samples;Min_cycle;Max_cycle;Signal;HPM_P1;HPM_P2
2023/07/21 00:00:22;;;;;;;18.65;17.23;;;;;;;12.15;96.06;101188.09;6224285;22;20011;-68
2023/07/21 00:02:49;;;;;;;17.67;16.13;;;;;;;12.22;95.93;101186.25;6248438;22;20476;-68
2023/07/21 00:05:15;;;;;;;17.70;16.08;;;;;;;12.04;95.49;101182.09;6244472;22;20083;-68
2023/07/21 00:07:42;;;;;;;15.48;14.18;;;;;;;11.87;94.10;101182.28;6222834;22;20065;-68
2023/07/21 00:10:09;;;;;;;17.55;15.90;;;;;;;11.89;95.30;101183.13;6233386;22;20023;-68
2023/07/21 00:12:37;;;;;;;18.08;16.42;;;;;;;11.84;95.96;101179.66;6222082;22;20008;-68
2023/07/21 00:15:04;;;;;;;17.08;15.57;;;;;;;11.79;96.17;101171.84;6247448;22;20353;-68
2023/07/21 00:17:30;;;;;;;17.63;16.17;;;;;;;11.79;97.34;101175.38;6248402;22;20006;-68
2023/07/21 00:20:03;;;;;;;17.13;15.65;;;;;;;11.88;96.57;101177.03;6223410;22;20519;-69
2023/07/21 00:22:28;;;;;;;16.70;15.30;;;;;;;11.87;97.00;101177.03;6224055;22;20165;-68
2023/07/21 00:24:54;;;;;;;15.73;14.43;;;;;;;11.85;96.13;101173.53;6222541;22;20043;-69
2023/07/21 00:27:19;;;;;;;15.85;14.45;;;;;;;11.76;95.45;101171.91;6248884;22;20003;-68
2023/07/21 00:29:45;;;;;;;16.48;14.88;;;;;;;11.57;95.60;101171.25;6223547;22;20007;-68
2023/07/21 00:32:11;;;;;;;14.98;13.48;;;;;;;11.53;95.47;101170.38;6223046;22;20071;-68
2023/07/21 00:34:37;;;;;;;39.03;15.43;;;;;;;11.55;95.88;101173.00;6223770;22;20011;-68
2023/07/21 00:37:04;;;;;;;17.23;15.82;;;;;;;11.51;96.27;101168.69;6222880;22;20004;-66
2023/07/21 00:39:29;;;;;;;15.15;13.95;;;;;;;11.56;95.72;101161.63;6222328;22;20296;-66
2023/07/21 00:41:55;;;;;;;14.32;13.13;;;;;;;11.51;94.37;101168.69;6248066;22;20000;-66
2023/07/21 00:44:21;;;;;;;13.32;12.18;;;;;;;11.49;93.88;101167.81;6198055;22;20004;-66
2023/07/21 00:46:46;;;;;;;14.60;13.23;;;;;;;11.44;93.95;101170.50;6223212;22;20011;-66
2023/07/21 00:49:12;;;;;;;15.38;13.98;;;;;;;11.48;94.58;101161.72;6221981;22;20460;-66
2023/07/21 00:51:39;;;;;;;15.02;13.80;;;;;;;11.56;94.96;101156.38;6197405;22;20030;-66
2023/07/21 00:54:05;;;;;;;14.73;13.38;;;;;;;11.56;94.62;101162.47;6221716;22;20007;-66
2023/07/21 00:56:31;;;;;;;12.38;11.27;;;;;;;11.52;92.93;101162.53;6222857;22;20014;-66
2023/07/21 00:58:57;;;;;;;12.40;11.30;;;;;;;11.37;92.42;101156.56;6222378;22;20814;-66
2023/07/21 01:01:23;;;;;;;12.75;11.65;;;;;;;11.44;92.86;101154.75;6223012;22;20004;-66
2023/07/21 01:03:49;;;;;;;13.27;11.98;;;;;;;11.41;93.53;101150.41;6222030;22;20074;-66
2023/07/21 01:06:14;;;;;;;12.05;10.90;;;;;;;11.48;91.84;101145.06;6223146;22;20008;-66
2023/07/21 01:08:40;;;;;;;12.98;11.82;;;;;;;11.48;92.66;101145.06;6196983;22;20083;-66
2023/07/21 01:11:10;;;;;;;13.95;12.65;;;;;;;11.55;93.29;101146.75;6222468;22;20004;-65
2023/07/21 01:13:36;;;;;;;13.32;12.15;;;;;;;11.56;93.20;101140.63;6248038;22;20010;-65
2023/07/21 01:16:03;;;;;;;11.48;10.48;;;;;;;11.52;91.67;101137.19;6222642;22;20386;-65
2023/07/21 01:18:29;;;;;;;10.60;9.68;;;;;;;11.30;90.50;101136.50;6222003;22;20020;-66
2023/07/21 01:20:56;;;;;;;12.23;11.23;;;;;;;11.35;92.07;101133.84;6247716;22;20406;-65
2023/07/21 01:23:26;;;;;;;14.48;13.18;;;;;;;11.47;94.53;101143.34;6221312;22;20026;-66
2023/07/21 01:25:53;;;;;;;16.83;15.43;;;;;;;11.47;95.34;101138.97;6246359;22;20318;-66
2023/07/21 01:28:20;;;;;;;14.88;13.60;;;;;;;11.48;96.09;101122.34;6198128;22;20078;-66
2023/07/21 01:30:48;;;;;;;13.52;12.32;;;;;;;11.45;94.72;101125.00;6246349;22;20003;-65
2023/07/21 01:33:20;;;;;;;13.52;12.32;;;;;;;11.37;93.76;101125.06;6222539;22;20003;-66
2023/07/21 01:35:48;;;;;;;10.82;9.90;;;;;;;11.29;92.12;101129.50;6223438;22;20436;-65
2023/07/21 01:38:15;;;;;;;12.50;11.40;;;;;;;11.25;92.87;101120.81;6222982;22;20019;-66
2023/07/21 01:40:41;;;;;;;13.93;12.52;;;;;;;11.31;93.15;101126.91;6246354;22;20010;-65
2023/07/21 01:43:08;;;;;;;13.68;12.50;;;;;;;11.30;94.09;101120.78;6222648;22;20038;-65
2023/07/21 01:45:33;;;;;;;15.23;13.63;;;;;;;11.30;94.79;101118.16;6222480;22;20426;-65
2023/07/21 01:47:59;;;;;;;15.30;13.90;;;;;;;11.26;95.26;101111.19;6222073;22;20014;-65
2023/07/21 01:50:26;;;;;;;16.20;14.70;;;;;;;11.18;96.88;101116.53;6222393;22;20027;-66
2023/07/21 01:52:52;;;;;;;15.85;14.45;;;;;;;11.25;96.44;101114.72;6247752;22;20031;-65
2023/07/21 01:55:30;;;;;;;21.25;14.95;;;;;;;11.19;97.39;101112.13;6221498;22;20426;-66
2023/07/21 01:58:03;;;;;;;15.45;14.05;;;;;;;11.11;96.51;101108.75;6247276;22;20004;-65
2023/07/21 02:00:36;;;;;;;14.48;13.27;;;;;;;11.02;95.03;101110.56;6246698;22;20097;-65
2023/07/21 02:03:03;;;;;;;12.10;10.93;;;;;;;10.97;93.08;101111.47;6247128;22;20145;-65
2023/07/21 02:05:29;;;;;;;12.35;11.13;;;;;;;10.90;92.28;101105.41;6247708;22;20003;-65
2023/07/21 02:07:56;;;;;;;12.38;11.18;;;;;;;10.82;93.24;101107.22;6247468;22;20014;-65
2023/07/21 02:10:22;;;;;;;13.68;12.35;;;;;;;10.84;94.85;101095.00;6247175;22;20042;-65
2023/07/21 02:12:48;;;;;;;16.08;14.50;;;;;;;10.81;96.56;101101.13;6249150;22;20413;-65
2023/07/21 02:15:17;;;;;;;15.30;14.00;;;;;;;10.86;96.93;101103.69;6223973;22;20008;-65
2023/07/21 02:17:43;;;;;;;15.77;14.27;;;;;;;10.83;96.60;101103.72;6248588;22;20377;-65
2023/07/21 02:20:08;;;;;;;15.40;14.18;;;;;;;10.83;97.33;101098.47;6249064;22;20027;-66
2023/07/21 02:22:39;;;;;;;15.05;13.57;;;;;;;10.73;96.92;101102.94;6199172;22;20008;-65
2023/07/21 02:25:07;;;;;;;13.93;12.75;;;;;;;10.70;95.22;101097.72;6223351;22;20322;-65
2023/07/21 02:27:33;;;;;;;13.55;12.25;;;;;;;10.65;93.35;101089.91;6249045;22;20074;-65
2023/07/21 02:30:00;;;;;;;12.93;11.63;;;;;;;10.60;93.46;101094.28;6198014;22;20003;-65
2023/07/21 02:32:28;;;;;;;14.30;12.95;;;;;;;10.63;94.90;101096.91;6247823;22;20119;-65
2023/07/21 02:34:54;;;;;;;15.73;14.20;;;;;;;10.69;96.70;101093.38;6198725;22;20012;-66
2023/07/21 02:37:19;;;;;;;13.80;12.50;;;;;;;10.61;95.68;101101.28;6249021;22;20480;-65
2023/07/21 02:39:45;;;;;;;13.05;11.93;;;;;;;10.51;92.74;101091.75;6222669;22;20036;-65
2023/07/21 02:42:10;;;;;;;12.30;11.13;;;;;;;10.52;93.06;101093.50;6222965;22;20066;-65
2023/07/21 02:44:35;;;;;;;14.38;12.82;;;;;;;10.50;95.23;101090.00;6224046;22;20007;-65
2023/07/21 02:47:01;;;;;;;14.45;13.25;;;;;;;10.43;96.46;101086.59;6223409;22;20421;-65
2023/07/21 02:49:27;;;;;;;15.10;13.70;;;;;;;10.42;96.69;101086.59;6197945;22;20014;-65
2023/07/21 02:51:52;;;;;;;14.50;12.98;;;;;;;10.42;97.00;101081.38;6249243;22;20000;-65
2023/07/21 02:54:18;;;;;;;13.73;12.48;;;;;;;10.43;97.24;101077.84;6222740;22;20030;-65
2023/07/21 02:56:44;;;;;;;15.30;14.10;;;;;;;10.31;98.43;101079.63;6224191;22;20011;-65
2023/07/21 02:59:10;;;;;;;15.70;14.43;;;;;;;10.30;99.70;101077.03;6223963;22;20011;-65
2023/07/21 03:01:37;;;;;;;15.75;14.45;;;;;;;10.30;99.55;101083.16;6199150;22;20081;-65
2023/07/21 03:04:03;;;;;;;15.65;14.35;;;;;;;10.22;99.81;101077.94;6197588;22;20031;-65
2023/07/21 03:06:30;;;;;;;17.10;15.50;;;;;;;10.21;100.00;101077.94;6224121;22;20082;-65
2023/07/21 03:08:56;;;;;;;13.90;12.80;;;;;;;10.25;99.97;101079.69;6222844;22;20011;-66
2023/07/21 03:11:22;;;;;;;11.80;10.70;;;;;;;10.18;97.38;101075.34;6199118;22;20008;-66
2023/07/21 03:13:47;;;;;;;10.63;9.75;;;;;;;10.17;96.32;101084.09;6249103;22;20008;-66
2023/07/21 03:16:13;;;;;;;11.30;10.35;;;;;;;10.10;95.90;101080.66;6223571;22;20117;-66
2023/07/21 03:18:39;;;;;;;11.98;10.77;;;;;;;10.04;96.15;101073.72;6222010;22;20024;-66
2023/07/21 03:21:05;;;;;;;11.68;10.68;;;;;;;10.09;94.70;101075.44;6248426;22;20039;-66
2023/07/21 03:23:30;;;;;;;13.63;12.25;;;;;;;9.99;95.51;101078.09;6248881;22;20008;-66
2023/07/21 03:25:56;;;;;;;12.90;11.80;;;;;;;10.13;96.24;101082.38;6222259;22;20008;-66
2023/07/21 03:28:21;;;;;;;12.00;11.00;;;;;;;10.13;95.47;101085.88;6198819;22;20015;-66
2023/07/21 03:30:57;;;;;;;12.70;11.60;;;;;;;10.05;96.10;101083.28;6223242;22;20035;-66
2023/07/21 03:33:22;;;;;;;12.43;11.30;;;;;;;10.05;95.71;101080.66;6223307;22;20031;-66
2023/07/21 03:35:48;;;;;;;12.07;10.98;;;;;;;10.06;94.23;101078.94;6222626;22;20433;-66
2023/07/21 03:38:14;;;;;;;13.25;11.77;;;;;;;10.06;95.33;101073.69;6223454;22;20008;-66
2023/07/21 03:40:39;;;;;;;13.05;11.85;;;;;;;10.14;96.58;101077.16;6222036;22;20057;-66
2023/07/21 03:43:04;;;;;;;14.85;13.48;;;;;;;10.18;97.19;101081.44;6248360;22;20014;-66
2023/07/21 03:45:31;;;;;;;14.25;12.85;;;;;;;10.05;97.57;101075.41;6223481;22;20014;-66
2023/07/21 03:47:57;;;;;;;13.75;11.98;;;;;;;9.95;97.65;101075.50;6222794;22;20011;-67
2023/07/21 03:50:23;;;;;;;14.52;13.13;;;;;;;9.98;98.13;101075.47;6223044;22;20016;-66
2023/07/21 03:52:48;;;;;;;13.10;11.43;;;;;;;9.96;97.26;101069.41;6222307;22;20004;-66
2023/07/21 03:55:14;;;;;;;11.73;10.63;;;;;;;10.04;95.94;101078.06;6221721;22;20014;-66
2023/07/21 03:57:39;;;;;;;12.75;11.50;;;;;;;9.91;96.18;101073.78;6223081;22;20053;-66
2023/07/21 04:00:06;;;;;;;11.98;10.70;;;;;;;9.99;95.10;101077.22;6223039;22;20012;-66
2023/07/21 04:02:32;;;;;;;9.77;8.93;;;;;;;9.88;94.20;101079.88;6222691;22;20031;-66
2023/07/21 04:04:57;;;;;;;13.38;10.98;;;;;;;9.85;95.12;101079.91;6223181;22;20018;-67
2023/07/21 04:07:23;;;;;;;12.68;11.35;;;;;;;9.98;96.21;101078.09;6222915;22;20014;-66
2023/07/21 04:09:48;;;;;;;12.43;11.35;;;;;;;10.03;96.12;101078.94;6247022;22;20003;-66
2023/07/21 04:12:14;;;;;;;14.25;12.88;;;;;;;10.06;96.81;101079.78;6222975;22;20030;-66
2023/07/21 04:14:39;;;;;;;16.45;14.93;;;;;;;10.17;98.33;101073.59;6222694;22;20021;-66
2023/07/21 04:17:05;;;;;;;16.52;14.90;;;;;;;10.20;99.01;101069.25;6222138;22;20004;-66
2023/07/21 04:19:30;;;;;;;15.63;14.13;;;;;;;10.29;98.71;101063.06;6222480;22;20024;-66
2023/07/21 04:21:56;;;;;;;16.25;14.65;;;;;;;10.38;98.73;101060.41;6222649;22;20018;-66
2023/07/21 04:24:21;;;;;;;15.48;14.07;;;;;;;10.30;97.50;101059.56;6221463;22;20382;-66
2023/07/21 04:26:46;;;;;;;16.63;15.13;;;;;;;10.45;97.53;101065.63;6222362;22;20015;-66
2023/07/21 04:29:12;;;;;;;15.18;13.63;;;;;;;10.68;96.54;101053.19;6222333;22;20061;-66
2023/07/21 04:31:37;;;;;;;15.63;14.27;;;;;;;10.98;95.84;101055.53;6222615;22;20041;-66
2023/07/21 04:34:03;;;;;;;14.32;13.02;;;;;;;10.96;94.92;101052.06;6221309;22;20012;-66
2023/07/21 04:36:28;;;;;;;14.00;12.60;;;;;;;11.07;93.88;101045.81;6220191;22;20106;-66
2023/07/21 04:38:54;;;;;;;14.18;12.98;;;;;;;11.45;94.45;101051.53;6216356;22;20015;-66
2023/07/21 04:41:19;;;;;;;13.70;12.48;;;;;;;11.87;92.20;101048.38;6220684;22;20007;-66
2023/07/21 04:43:45;;;;;;;14.13;12.82;;;;;;;11.93;91.37;101051.78;6222174;22;20015;-66
2023/07/21 04:46:12;;;;;;;14.18;12.88;;;;;;;12.15;90.91;101055.88;6246996;22;20012;-66
2023/07/21 04:48:38;;;;;;;13.98;12.75;;;;;;;12.38;90.16;101045.00;6221354;22;20061;-67
2023/07/21 04:51:06;;;;;;;15.60;13.55;;;;;;;12.57;88.78;101049.09;6221961;22;20031;-67
2023/07/21 04:53:31;;;;;;;13.95;12.55;;;;;;;12.76;88.36;101046.16;6221489;22;20008;-67
2023/07/21 04:55:58;;;;;;;13.65;12.55;;;;;;;13.12;87.50;101059.50;6243519;22;20137;-67
2023/07/21 04:58:24;;;;;;;12.73;11.60;;;;;;;13.72;86.49;101050.44;6221805;22;20019;-67
2023/07/21 05:00:54;;;;;;;12.40;11.20;;;;;;;14.41;83.85;101050.63;6244817;22;20425;-67
2023/07/21 05:03:20;;;;;;;11.85;10.88;;;;;;;14.99;81.78;101047.44;6246277;22;20087;-67
2023/07/21 05:05:46;;;;;;;14.35;11.50;;;;;;;15.41;79.65;101049.78;6220607;22;20090;-67
2023/07/21 05:08:12;;;;;;;11.18;10.18;;;;;;;15.77;78.68;101057.53;6245044;22;20007;-67
2023/07/21 05:10:37;;;;;;;12.25;11.18;;;;;;;16.22;77.48;101053.53;6219439;22;20031;-67
2023/07/21 05:13:05;;;;;;;12.10;10.98;;;;;;;16.93;74.95;101059.19;6197095;22;20004;-67
2023/07/21 05:15:35;;;;;;;12.65;11.40;;;;;;;17.24;73.88;101061.63;6221297;22;20004;-67
2023/07/21 05:18:01;;;;;;;12.38;11.27;;;;;;;18.17;71.15;101052.81;6220554;22;20014;-67
2023/07/21 05:20:27;;;;;;;12.50;11.40;;;;;;;18.51;69.24;101054.09;6221970;22;20027;-67
2023/07/21 05:22:52;;;;;;;11.65;10.65;;;;;;;18.49;67.55;101053.31;6247521;22;20334;-67
2023/07/21 05:25:18;;;;;;;12.27;11.15;;;;;;;18.64;67.41;101052.66;6219189;22;20015;-67
2023/07/21 05:27:47;;;;;;;13.02;11.82;;;;;;;18.39;67.61;101054.59;6218317;22;20008;-67
2023/07/21 05:30:13;;;;;;;12.68;11.57;;;;;;;18.63;67.41;101055.38;6244294;22;20007;-67
2023/07/21 05:32:41;;;;;;;12.38;11.18;;;;;;;18.84;67.61;101050.94;6219326;22;20042;-67
2023/07/21 05:35:11;;;;;;;11.95;10.73;;;;;;;19.40;65.95;101046.75;6221659;22;20008;-66
2023/07/21 05:37:37;;;;;;;12.25;11.13;;;;;;;19.70;65.22;101049.78;6246049;22;20093;-66
2023/07/21 05:40:07;;;;;;;11.43;10.43;;;;;;;20.21;62.73;101059.81;6219841;22;20011;-67
2023/07/21 05:42:33;;;;;;;12.00;10.77;;;;;;;20.12;62.38;101057.63;6220733;22;20008;-66
2023/07/21 05:44:58;;;;;;;11.63;10.63;;;;;;;20.87;61.82;101067.19;6221342;22;20023;-66
2023/07/21 05:47:24;;;;;;;11.70;10.48;;;;;;;21.43;58.52;101061.63;6248493;22;20203;-67
2023/07/21 05:49:49;;;;;;;10.95;9.98;;;;;;;21.84;58.17;101057.66;6223585;22;20008;-67
2023/07/21 05:52:15;;;;;;;12.63;10.27;;;;;;;22.23;56.03;101059.06;6223585;22;20090;-67
2023/07/21 05:54:41;;;;;;;12.70;11.63;;;;;;;21.89;57.55;101053.78;6222948;22;20086;-67
2023/07/21 05:57:07;;;;;;;12.27;11.02;;;;;;;22.04;57.10;101057.44;6224006;22;20061;-67
2023/07/21 05:59:32;;;;;;;11.70;10.60;;;;;;;22.62;56.21;101055.88;6198609;22;20007;-67
2023/07/21 06:01:59;;;;;;;11.82;10.70;;;;;;;22.66;55.63;101053.91;6198949;22;20016;-67
2023/07/21 06:04:24;;;;;;;13.07;11.77;;;;;;;21.91;56.42;101046.59;6222567;22;20016;-67
2023/07/21 06:06:50;;;;;;;12.65;11.48;;;;;;;21.79;56.82;101061.47;6276565;22;20010;-67
2023/07/21 06:09:16;;;;;;;12.65;11.40;;;;;;;21.78;57.31;101057.09;6223027;22;20016;-67
2023/07/21 06:11:41;;;;;;;13.10;11.90;;;;;;;21.77;57.24;101063.34;6224162;22;20090;-67
2023/07/21 06:14:07;;;;;;;13.43;12.25;;;;;;;22.00;57.82;101053.22;6223693;22;20086;-67
2023/07/21 06:16:33;;;;;;;12.57;11.55;;;;;;;22.19;57.22;101060.16;6222829;22;20562;-67
2023/07/21 06:22:08;;;;;;;12.48;11.38;;;;;;;23.67;54.79;101072.75;6257678;22;20053;-68
2023/07/21 06:24:35;;;;;;;12.73;11.63;;;;;;;24.07;53.81;101066.69;6247710;22;20027;-68
2023/07/21 06:27:00;;;;;;;12.07;10.85;;;;;;;23.49;54.00;101072.94;6275995;22;20421;-67
2023/07/21 06:29:26;;;;;;;11.93;10.90;;;;;;;23.03;53.83;101075.75;6223674;22;20072;-67
2023/07/21 06:31:51;;;;;;;11.55;10.45;;;;;;;22.07;55.26;101064.41;6223394;22;20010;-67
2023/07/21 06:34:17;;;;;;;11.82;10.75;;;;;;;21.20;58.39;101070.88;6198260;22;20039;-67
2023/07/21 06:36:44;;;;;;;12.80;11.60;;;;;;;20.31;62.41;101065.56;6222092;22;20012;-67
2023/07/21 06:39:09;;;;;;;12.75;11.65;;;;;;;20.23;62.59;101065.97;6222909;22;20011;-67
2023/07/21 06:41:35;;;;;;;13.15;11.93;;;;;;;19.73;63.91;101060.25;6223412;22;20513;-68
2023/07/21 06:44:01;;;;;;;13.77;12.57;;;;;;;19.31;66.81;101053.34;6248714;22;20003;-68
2023/07/21 06:46:26;;;;;;;14.07;11.23;;;;;;;19.26;66.66;101054.47;6223870;22;20077;-68
2023/07/21 06:48:53;;;;;;;13.50;12.20;;;;;;;18.99;67.50;101049.44;6223156;22;20004;-67
2023/07/21 06:51:19;;;;;;;13.73;12.43;;;;;;;18.64;69.66;101043.84;6199306;22;20003;-68
2023/07/21 06:53:45;;;;;;;13.07;11.88;;;;;;;18.76;68.16;101047.75;6222170;22;20295;-68
2023/07/21 06:56:13;;;;;;;13.82;11.93;;;;;;;18.60;67.46;101045.75;6223224;22;20446;-68
2023/07/21 06:58:39;;;;;;;14.57;13.18;;;;;;;18.66;68.35;101040.19;6223630;22;20014;-68
2023/07/21 07:01:04;;;;;;;13.70;12.40;;;;;;;18.47;68.37;101044.53;6248590;22;20298;-67
2023/07/21 07:03:29;;;;;;;14.00;12.70;;;;;;;18.61;69.72;101042.16;6223221;22;20012;-68
2023/07/21 07:05:55;;;;;;;14.40;12.90;;;;;;;18.42;70.24;101041.19;6223075;22;20003;-67
2023/07/21 07:08:21;;;;;;;14.05;12.90;;;;;;;18.35;70.71;101040.63;6223655;22;20019;-68
2023/07/21 07:10:47;;;;;;;13.32;11.93;;;;;;;18.40;71.10;101035.97;6222266;22;20090;-67
2023/07/21 07:13:13;;;;;;;13.50;12.25;;;;;;;18.39;70.14;101042.22;6247856;22;20004;-68
2023/07/21 07:15:39;;;;;;;13.73;12.52;;;;;;;18.37;68.97;101044.06;6198077;22;20378;-67
2023/07/21 07:21:18;;;;;;;12.88;11.77;;;;;;;18.60;69.62;101048.41;6226907;22;20026;-67
2023/07/21 07:23:43;;;;;;;14.13;12.60;;;;;;;18.52;68.72;101038.13;6155202;23;20417;-67
2023/07/21 07:26:08;;;;;;;14.48;13.07;;;;;;;18.53;69.48;101038.97;6135920;23;20038;-67
2023/07/21 07:28:34;;;;;;;16.50;13.32;;;;;;;18.64;70.24;101036.72;6163580;23;20079;-67
2023/07/21 07:31:06;;;;;;;15.10;12.70;;;;;;;18.83;70.27;101039.47;6138467;23;20008;-67
2023/07/21 07:33:32;;;;;;;13.13;11.93;;;;;;;19.09;70.22;101041.94;6163140;23;20279;-67
2023/07/21 07:35:59;;;;;;;13.63;12.23;;;;;;;19.30;69.47;101045.44;6162548;23;20005;-67
2023/07/21 07:38:30;;;;;;;11.90;10.63;;;;;;;19.48;68.36;101038.41;6162730;23;20315;-67
2023/07/21 07:41:09;;;;;;;13.52;11.25;;;;;;;19.71;68.68;101043.53;6187146;23;20423;-67
2023/07/21 07:43:35;;;;;;;10.95;9.95;;;;;;;19.93;67.56;101044.34;6163436;23;20004;-67
2023/07/21 07:46:02;;;;;;;10.80;9.80;;;;;;;20.07;65.57;101047.22;6162798;23;20012;-67
2023/07/21 07:48:27;;;;;;;12.40;10.18;;;;;;;20.26;65.43;101041.84;6162886;23;20163;-67
2023/07/21 07:50:53;;;;;;;11.30;9.93;;;;;;;20.24;65.47;101047.25;6187300;23;20409;-67
2023/07/21 07:53:19;;;;;;;9.93;9.02;;;;;;;20.20;65.40;101052.78;6162818;23;20009;-67
2023/07/21 07:55:45;;;;;;;10.70;9.77;;;;;;;20.21;64.98;101044.75;6184585;23;20005;-67
2023/07/21 07:58:11;;;;;;;10.52;9.52;;;;;;;20.41;64.15;101043.75;6162636;23;20013;-67
2023/07/21 08:00:41;;;;;;;10.27;9.30;;;;;;;20.36;62.06;101044.94;6187566;23;20019;-67
2023/07/21 08:03:09;;;;;;;11.45;10.25;;;;;;;20.48;63.76;101051.44;6185805;23;20012;-67
2023/07/21 08:05:38;;;;;;;10.13;9.05;;;;;;;20.43;63.49;101055.19;6161944;23;20339;-67
2023/07/21 08:08:04;;;;;;;10.57;8.95;;;;;;;20.46;63.04;101045.31;6186147;23;20015;-67
2023/07/21 08:10:30;;;;;;;8.40;7.57;;;;;;;20.30;61.49;101050.53;6186687;23;20005;-67
2023/07/21 08:12:57;;;;;;;8.95;8.05;;;;;;;20.50;62.21;101049.53;6162422;23;20430;-67
2023/07/21 08:15:23;;;;;;;9.75;8.63;;;;;;;20.50;61.56;101049.53;6187637;23;20099;-67
2023/07/21 08:17:50;;;;;;;10.10;8.85;;;;;;;20.50;61.96;101049.53;6162067;23;20103;-67
2023/07/21 08:20:18;;;;;;;10.45;9.00;;;;;;;20.64;62.53;101049.72;6187626;23;20358;-67
2023/07/21 08:22:50;;;;;;;9.30;8.50;;;;;;;20.74;60.66;101051.00;6187289;23;20016;-67
2023/07/21 08:25:17;;;;;;;12.38;8.85;;;;;;;20.79;61.47;101042.78;6137372;23;20039;-67
2023/07/21 08:27:42;;;;;;;9.93;8.93;;;;;;;20.62;61.32;101043.59;6162766;23;20012;-67
2023/07/21 08:30:08;;;;;;;9.57;8.57;;;;;;;20.90;61.19;101043.09;6162888;23;20024;-67
2023/07/21 08:32:38;;;;;;;9.68;8.77;;;;;;;20.95;61.20;101050.84;6162329;23;20151;-67
2023/07/21 08:35:05;;;;;;;10.13;9.00;;;;;;;21.08;60.15;101045.72;6162749;23;20457;-67
2023/07/21 08:37:31;;;;;;;8.90;8.02;;;;;;;20.99;59.23;101052.41;6187358;23;20350;-67
2023/07/21 08:39:57;;;;;;;8.00;7.30;;;;;;;20.98;56.15;101049.81;6137547;23;20008;-67
2023/07/21 08:42:24;;;;;;;7.68;6.93;;;;;;;21.09;57.68;101053.66;6162654;23;20013;-67
2023/07/21 08:44:52;;;;;;;8.98;7.28;;;;;;;20.94;55.68;101052.63;6187474;23;20008;-67
2023/07/21 08:47:19;;;;;;;9.77;7.07;;;;;;;20.90;56.59;101051.09;6186923;23;20079;-67
2023/07/21 08:49:45;;;;;;;7.38;6.47;;;;;;;20.95;58.37;101048.19;6162827;23;20397;-67
2023/07/21 08:52:11;;;;;;;7.90;6.80;;;;;;;20.91;58.25;101054.59;6162627;23;20099;-67
2023/07/21 08:54:36;;;;;;;7.68;6.68;;;;;;;20.66;54.97;101047.84;6137523;23;20028;-67
2023/07/21 08:57:02;;;;;;;7.95;6.72;;;;;;;21.03;57.06;101058.41;6162656;23;20013;-67
2023/07/21 08:59:28;;;;;;;7.60;6.72;;;;;;;21.06;55.40;101048.47;6162615;23;20096;-67
2023/07/21 09:01:53;;;;;;;8.93;7.05;;;;;;;21.19;55.11;101042.47;6162500;23;20065;-67
2023/07/21 09:04:21;;;;;;;10.02;6.93;;;;;;;21.18;56.85;101043.44;6186704;23;20478;-67
2023/07/21 09:06:55;;;;;;;6.47;5.47;;;;;;;21.07;55.39;101052.00;6162843;23;20016;-66
2023/07/21 09:09:22;;;;;;;7.00;5.72;;;;;;;21.04;55.93;101044.16;6185849;23;20028;-67
2023/07/21 09:11:49;;;;;;;7.03;5.75;;;;;;;20.96;55.84;101046.38;6162735;23;20024;-67
2023/07/21 09:14:16;;;;;;;6.75;6.15;;;;;;;21.02;56.32;101051.34;6161983;23;20115;-67
2023/07/21 09:16:43;;;;;;;7.00;6.30;;;;;;;20.93;55.96;101050.94;6187487;23;20012;-67
2023/07/21 09:19:09;;;;;;;5.65;5.05;;;;;;;20.87;54.07;101053.03;6186609;23;20021;-67
2023/07/21 09:21:35;;;;;;;5.95;5.00;;;;;;;20.85;54.46;101049.59;6161793;23;20043;-67
2023/07/21 09:24:06;;;;;;;6.95;6.20;;;;;;;20.81;56.08;101043.56;6186263;23;20399;-67
2023/07/21 09:26:32;;;;;;;10.27;6.78;;;;;;;20.79;55.52;101039.25;6185869;23;20028;-67
2023/07/21 09:28:58;;;;;;;9.88;7.00;;;;;;;20.88;55.67;101046.78;6186581;23;20103;-67
2023/07/21 09:31:28;;;;;;;7.72;6.65;;;;;;;21.01;56.83;101044.34;6186449;23;20004;-68
2023/07/21 09:33:54;;;;;;;8.15;6.70;;;;;;;21.14;55.22;101044.56;6184092;23;20016;-67
2023/07/21 09:36:22;;;;;;;7.97;6.05;;;;;;;21.19;55.14;101043.38;6161992;23;20245;-68
2023/07/21 09:38:48;;;;;;;7.38;6.68;;;;;;;21.08;53.69;101040.41;6186478;23;20067;-67
2023/07/21 09:41:15;;;;;;;7.90;6.88;;;;;;;21.24;55.46;101040.44;6187004;23;20441;-67
2023/07/21 09:43:42;;;;;;;7.80;7.03;;;;;;;21.36;55.13;101037.09;6187047;23;20338;-67
2023/07/21 09:46:08;;;;;;;8.32;7.50;;;;;;;21.34;54.29;101041.66;6162698;23;20012;-67
2023/07/21 09:48:36;;;;;;;7.80;7.00;;;;;;;21.49;54.10;101023.13;6162152;23;20445;-67
2023/07/21 09:51:04;;;;;;;8.38;6.95;;;;;;;21.56;54.96;101021.88;6162099;23;20083;-67
2023/07/21 09:53:45;;;;;;;8.15;7.38;;;;;;;21.56;56.29;101025.38;6186979;23;20008;-67
2023/07/21 09:56:13;;;;;;;8.85;7.95;;;;;;;21.57;52.78;101020.94;6162831;23;20366;-67
2023/07/21 09:58:45;;;;;;;10.55;9.55;;;;;;;21.57;53.97;101020.94;6187273;23;20008;-67
2023/07/21 10:01:12;;;;;;;10.52;9.02;;;;;;;21.66;53.68;101012.41;6186569;23;20004;-67
2023/07/21 10:03:38;;;;;;;13.00;11.60;;;;;;;21.57;55.27;101012.94;6161071;23;20016;-68
2023/07/21 10:06:04;;;;;;;13.00;11.45;;;;;;;21.73;53.64;101007.59;6187155;23;20009;-68
2023/07/21 10:08:33;;;;;;;12.45;10.70;;;;;;;21.83;54.24;101011.47;6187129;23;20434;-67
2023/07/21 10:10:59;;;;;;;10.45;9.45;;;;;;;21.87;54.62;101006.84;6186597;23;20001;-68
2023/07/21 10:13:27;;;;;;;11.80;10.70;;;;;;;21.80;52.02;101012.50;6162582;23;20517;-67
2023/07/21 10:15:58;;;;;;;10.98;9.77;;;;;;;22.07;52.25;101017.22;6137613;23;20161;-67
2023/07/21 10:18:24;;;;;;;10.50;9.50;;;;;;;22.12;53.18;101009.81;6186896;23;20009;-67
2023/07/21 10:20:56;;;;;;;10.77;9.70;;;;;;;22.30;51.16;101017.72;6161971;23;20044;-67
2023/07/21 10:23:29;;;;;;;12.75;11.52;;;;;;;22.36;52.12;101008.50;6186723;23;20020;-67
2023/07/21 10:25:59;;;;;;;13.40;12.10;;;;;;;22.38;52.56;101001.25;6162525;23;20016;-67
2023/07/21 10:28:32;;;;;;;12.00;10.88;;;;;;;22.26;52.86;101011.66;6186485;23;20008;-67
2023/07/21 10:31:25;;;;;;;12.55;11.35;;;;;;;22.17;52.73;101008.69;6186611;23;20012;-67
2023/07/21 10:34:06;;;;;;;11.70;10.48;;;;;;;22.03;52.96;101015.69;6188207;23;20510;-67
2023/07/21 10:36:53;;;;;;;11.20;9.52;;;;;;;21.90;52.88;101006.66;6188895;23;20035;-67
2023/07/21 10:39:23;;;;;;;12.43;9.32;;;;;;;21.57;51.39;101002.28;6165701;23;20335;-68
2023/07/21 10:41:50;;;;;;;10.73;8.93;;;;;;;21.47;54.00;101001.88;6187762;23;20028;-68
2023/07/21 10:44:16;;;;;;;10.00;9.10;;;;;;;21.39;54.10;101001.44;6188570;23;20083;-68
2023/07/21 10:46:46;;;;;;;11.13;9.75;;;;;;;21.24;53.33;101013.78;6163735;23;20032;-68
2023/07/21 10:49:14;;;;;;;10.90;9.85;;;;;;;21.13;54.54;101011.69;6188096;23;20279;-67
2023/07/21 10:51:41;;;;;;;10.55;9.55;;;;;;;21.09;55.32;101015.50;6188143;23;20001;-67
2023/07/21 10:54:07;;;;;;;13.45;10.02;;;;;;;20.89;56.66;101009.41;6186585;23;20005;-68
2023/07/21 10:56:43;;;;;;;10.57;9.57;;;;;;;20.84;57.92;101015.91;6188785;23;20005;-67
2023/07/21 10:59:10;;;;;;;11.60;9.52;;;;;;;20.69;57.79;101017.56;6188080;23;20131;-67
2023/07/21 11:01:44;;;;;;;11.85;10.48;;;;;;;20.67;57.19;101012.31;6139169;23;20008;-67
2023/07/21 11:04:11;;;;;;;12.05;10.88;;;;;;;20.60;57.89;101016.19;6187911;23;20004;-67
2023/07/21 11:07:00;;;;;;;13.43;11.02;;;;;;;20.74;57.93;101020.84;6138832;23;20032;-67
2023/07/21 11:09:33;;;;;;;13.63;11.98;;;;;;;20.63;57.44;101012.50;6172814;23;20391;-68
2023/07/21 11:11:59;;;;;;;13.52;12.32;;;;;;;20.51;57.59;101019.31;6188355;23;20001;-68
2023/07/21 11:14:27;;;;;;;12.80;11.50;;;;;;;20.36;55.10;101016.50;6163117;23;20012;-68
2023/07/21 11:16:59;;;;;;;16.35;14.77;;;;;;;20.19;57.47;101032.44;6215082;23;20001;-67